Time;durP1;ratioP1;P1;durP2;ratioP2;P2;SDS_P1;SDS_P2;PMS_P1;PMS_P2;Temp;Humidity;BMP_temperature;BMP_pressure;BME280_temperature;BME280_humidity;BME280_pressure;Samples;Min_cycle;Max_cycle;Signal;HPM_P1;HPM_P2
2023/07/09 00:02:27;;;;;;;;;15.50;14.00;;;;;16.50;97.00;100043.50;6282066;20;2812792;-49
2023/07/09 00:04:56;;;;;;;;;20.00;18.00;;;;;16.00;99.34;100051.97;6284524;20;3554403;-54
2023/07/09 00:07:32;;;;;;;;;18.00;17.00;;;;;15.78;99.86;100050.06;6281515;20;2500271;-49
2023/07/09 00:10:01;;;;;;;;;18.00;17.00;;;;;15.81;99.72;100043.56;6282604;20;2826301;-52
2023/07/09 00:12:28;;;;;;;;;17.00;17.00;;;;;15.72;100.00;100049.69;6281074;20;2496172;-50
2023/07/09 00:14:57;;;;;;;;;20.00;20.00;;;;;15.68;100.00;100042.75;6279472;20;2488209;-53
2023/07/09 00:17:33;;;;;;;;;18.00;17.00;;;;;15.59;100.00;100047.91;6282903;20;3575280;-49
2023/07/09 00:20:05;;;;;;;;;15.00;14.00;;;;;15.35;100.00;100055.19;6281858;20;2500292;-55
2023/07/09 00:22:34;;;;;;;;;14.00;14.00;;;;;15.80;100.00;100052.69;6282242;20;3535683;-51
2023/07/09 00:25:03;;;;;;;;;15.50;15.50;;;;;15.32;100.00;100055.38;6314655;20;2815934;-49
2023/07/09 00:27:32;;;;;;;;;15.67;15.67;;;;;15.45;100.00;100056.19;6278391;20;3558611;-49
2023/07/09 00:29:59;;;;;;;;;16.00;14.50;;;;;15.38;100.00;100054.94;6281864;20;2491987;-51
2023/07/09 00:32:28;;;;;;;;;16.67;16.00;;;;;15.17;100.00;100062.84;6281949;20;2500469;-48
2023/07/09 00:34:56;;;;;;;;;19.00;18.00;;;;;15.15;100.00;100057.53;6313777;20;2828507;-51
2023/07/09 00:37:25;;;;;;;;;18.00;17.00;;;;;15.07;100.00;100051.81;6281605;20;2828424;-49
2023/07/09 00:39:54;;;;;;;;;15.00;15.00;;;;;15.11;100.00;100052.44;6284518;20;2796290;-51
2023/07/09 00:42:23;;;;;;;;;13.67;13.67;;;;;15.07;100.00;100049.13;6281566;20;3537787;-52
2023/07/09 00:44:54;;;;;;;;;17.50;17.50;;;;;15.09;100.00;100049.03;6285058;20;2829634;-51
2023/07/09 00:47:28;;;;;;;;;16.00;16.00;;;;;15.26;100.00;100050.44;6279505;20;2824638;-49
2023/07/09 00:50:09;;;;;;;;;18.00;16.50;;;;;15.23;100.00;100040.72;6280438;20;2819044;-50
2023/07/09 00:52:54;;;;;;;;;18.00;18.00;;;;;15.06;100.00;100038.41;6279492;20;2836075;-50
2023/07/09 00:55:29;;;;;;;;;19.50;18.00;;;;;14.96;100.00;100035.53;6280943;20;2496141;-53
2023/07/09 00:58:05;;;;;;;;;19.50;19.50;;;;;15.05;100.00;100031.28;6279177;20;2831625;-51
2023/07/09 01:00:46;;;;;;;;;19.00;17.50;;;;;15.28;100.00;100038.53;6282450;20;2835819;-51
2023/07/09 01:03:29;;;;;;;;;18.50;18.00;;;;;15.52;100.00;100029.53;6278592;20;2828762;-52
2023/07/09 01:05:57;;;;;;;;;19.50;19.50;;;;;15.51;100.00;100034.09;6279392;20;2496109;-53
2023/07/09 01:08:30;;;;;;;;;20.67;19.33;;;;;15.39;100.00;100035.00;6282616;20;3585736;-49
2023/07/09 01:10:59;;;;;;;;;19.50;19.50;;;;;15.34;100.00;100037.19;6281636;20;2813941;-51
2023/07/09 01:13:29;;;;;;;;;17.50;17.00;;;;;15.42;100.00;100029.38;6281632;20;2824253;-51
2023/07/09 01:15:57;;;;;;;;;20.50;19.00;;;;;15.69;100.00;100034.56;6278761;20;2838795;-49
2023/07/09 01:18:25;;;;;;;;;16.00;14.33;;;;;15.77;100.00;100039.34;6273824;20;3542006;-48
2023/07/09 01:21:07;;;;;;;;;18.50;17.00;;;;;15.83;100.00;100044.31;6280349;20;2824345;-50
2023/07/09 01:23:36;;;;;;;;;19.50;19.50;;;;;15.55;100.00;100035.56;6281898;20;2822147;-52
2023/07/09 01:26:04;;;;;;;;;21.50;19.50;;;;;15.45;100.00;100041.78;6282267;20;2844181;-54
2023/07/09 01:28:33;;;;;;;;;20.00;20.00;;;;;15.52;100.00;100035.81;6285837;20;3585682;-49
2023/07/09 01:31:02;;;;;;;;;20.33;19.33;;;;;15.52;100.00;100046.63;6286277;20;3567105;-52
2023/07/09 01:33:31;;;;;;;;;20.50;20.00;;;;;15.77;100.00;100034.81;6279016;20;2848193;-53
2023/07/09 01:36:00;;;;;;;;;18.50;17.50;;;;;15.82;99.98;100042.56;6279992;20;2826350;-53
2023/07/09 01:38:31;;;;;;;;;21.33;18.00;;;;;15.91;100.00;100047.28;6284833;20;3566984;-48
2023/07/09 01:41:01;;;;;;;;;23.67;20.67;;;;;15.77;100.00;100047.47;6313803;20;3584744;-53
2023/07/09 01:43:31;;;;;;;;;21.00;21.00;;;;;15.75;100.00;100046.75;6278367;20;3583650;-49
2023/07/09 01:45:59;;;;;;;;;22.00;22.00;;;;;15.79;100.00;100048.22;6282059;20;3580559;-51
2023/07/09 01:48:28;;;;;;;;;19.67;19.00;;;;;15.94;100.00;100051.59;6279779;20;3575320;-48
2023/07/09 01:50:56;;;;;;;;;20.00;18.67;;;;;15.77;100.00;100053.78;6313933;20;3561768;-48
2023/07/09 01:53:26;;;;;;;;;22.33;20.67;;;;;15.73;100.00;100048.72;6311883;20;3572202;-54
2023/07/09 01:55:55;;;;;;;;;23.50;20.00;;;;;15.69;100.00;100055.31;6275181;20;2833730;-54
2023/07/09 01:58:24;;;;;;;;;19.00;19.00;;;;;15.58;100.00;100056.97;6279277;20;2825273;-52
2023/07/09 02:00:53;;;;;;;;;21.33;20.33;;;;;15.29;100.00;100061.88;6278694;20;2842992;-52
2023/07/09 02:03:24;;;;;;;;;21.67;20.33;;;;;15.00;100.00;100061.38;6311015;20;3578414;-54
2023/07/09 02:05:53;;;;;;;;;20.00;20.00;;;;;15.18;100.00;100058.28;6281126;20;2842158;-53
2023/07/09 02:08:21;;;;;;;;;19.50;17.50;;;;;15.20;100.00;100046.38;6280117;20;2841957;-54
2023/07/09 02:10:50;;;;;;;;;18.00;18.00;;;;;15.42;100.00;100051.00;6276915;20;2821329;-49
2023/07/09 02:13:18;;;;;;;;;21.50;20.00;;;;;15.43;100.00;100052.75;6275837;20;2838974;-50
2023/07/09 02:15:47;;;;;;;;;20.50;19.50;;;;;15.42;100.00;100051.00;6274632;20;2833614;-52
2023/07/09 02:18:15;;;;;;;;;17.00;17.00;;;;;15.71;100.00;100062.34;6277554;20;2833652;-51
2023/07/09 02:20:46;;;;;;;;;19.50;19.00;;;;;15.66;100.00;100055.53;6278030;20;2837796;-50
2023/07/09 02:23:14;;;;;;;;;19.00;17.50;;;;;15.74;100.00;100061.25;6277217;20;2831679;-49
2023/07/09 02:25:42;;;;;;;;;18.50;17.00;;;;;15.76;100.00;100059.28;6277251;20;2832698;-50
2023/07/09 02:28:11;;;;;;;;;20.67;19.33;;;;;15.56;100.00;100064.38;6283084;20;3564069;-52
2023/07/09 02:30:39;;;;;;;;;15.50;15.50;;;;;15.51;100.00;100060.28;6309529;20;2820152;-51
2023/07/09 02:33:07;;;;;;;;;16.00;14.67;;;;;15.64;100.00;100063.78;6279441;20;3544024;-53
2023/07/09 02:35:36;;;;;;;;;20.00;18.00;;;;;15.53;100.00;100059.19;6277420;20;2834636;-50
2023/07/09 02:38:04;;;;;;;;;22.00;20.50;;;;;15.70;100.00;100052.50;6275336;20;2491928;-54
2023/07/09 02:40:33;;;;;;;;;19.00;19.00;;;;;15.69;100.00;100058.91;6284634;20;3577423;-53
2023/07/09 02:43:02;;;;;;;;;19.50;19.50;;;;;15.53;100.00;100063.72;6276355;20;2837896;-48
2023/07/09 02:45:30;;;;;;;;;19.50;19.50;;;;;15.42;100.00;100061.84;6277439;20;2831600;-48
2023/07/09 02:47:58;;;;;;;;;20.67;19.67;;;;;15.41;100.00;100064.69;6278529;20;3582946;-51
2023/07/09 02:50:26;;;;;;;;;21.00;20.00;;;;;15.06;100.00;100050.13;6277536;20;2840438;-52
2023/07/09 02:52:54;;;;;;;;;19.00;18.50;;;;;15.19;100.00;100051.88;6279551;20;2838882;-50
2023/07/09 02:55:23;;;;;;;;;23.00;19.67;;;;;15.15;100.00;100053.97;6281762;20;3577466;-51
2023/07/09 02:57:51;;;;;;;;;19.00;19.00;;;;;14.94;100.00;100064.53;6275592;20;2838815;-53
2023/07/09 03:00:20;;;;;;;;;19.33;18.67;;;;;14.96;100.00;100059.03;6284103;20;3546147;-52
2023/07/09 03:02:48;;;;;;;;;20.00;18.50;;;;;14.93;100.00;100054.72;6310260;20;2834695;-54
2023/07/09 03:05:16;;;;;;;;;17.50;17.00;;;;;14.86;100.00;100058.81;6279899;20;2833772;-51
2023/07/09 03:07:44;;;;;;;;;23.00;20.00;;;;;14.48;100.00;100059.72;6279331;20;2844122;-52
2023/07/09 03:10:13;;;;;;;;;19.50;19.50;;;;;14.42;100.00;100057.47;6285971;20;2833612;-50
2023/07/09 03:12:41;;;;;;;;;20.00;20.00;;;;;14.41;100.00;100063.84;6285568;20;2834706;-52
2023/07/09 03:15:11;;;;;;;;;20.00;18.00;;;;;14.43;100.00;100056.53;6285902;20;2819062;-53
2023/07/09 03:17:39;;;;;;;;;21.67;20.67;;;;;14.91;100.00;100056.66;6286526;20;3574234;-51
2023/07/09 03:20:08;;;;;;;;;20.50;18.50;;;;;14.82;100.00;100062.72;6281813;20;2833680;-52
2023/07/09 03:22:36;;;;;;;;;17.50;17.00;;;;;15.00;100.00;100063.22;6282808;20;2819425;-53
2023/07/09 03:25:05;;;;;;;;;19.50;18.50;;;;;15.21;100.00;100055.34;6284328;20;2835709;-53
2023/07/09 03:27:34;;;;;;;;;16.00;15.50;;;;;15.04;100.00;100057.47;6281411;20;2821261;-52
2023/07/09 03:30:03;;;;;;;;;22.33;21.33;;;;;14.95;100.00;100065.38;6284323;20;2849345;-47
2023/07/09 03:32:31;;;;;;;;;20.00;20.00;;;;;15.14;100.00;100068.47;6316620;20;3579461;-54
2023/07/09 03:34:59;;;;;;;;;20.50;20.50;;;;;15.08;100.00;100069.78;6281490;20;2848227;-49
2023/07/09 03:37:27;;;;;;;;;19.33;18.67;;;;;15.20;100.00;100072.56;6282271;20;3571189;-48
2023/07/09 03:39:56;;;;;;;;;19.00;17.00;;;;;15.66;100.00;100077.19;6282865;20;2829426;-52
2023/07/09 03:42:24;;;;;;;;;19.00;19.00;;;;;15.71;100.00;100078.59;6278556;20;2833703;-50
2023/07/09 03:44:55;;;;;;;;;20.00;17.50;;;;;15.90;100.00;100080.72;6283187;20;2862778;-51
2023/07/09 03:47:23;;;;;;;;;18.00;18.00;;;;;15.84;100.00;100083.94;6283190;20;3448195;-51
2023/07/09 03:49:51;;;;;;;;;17.00;17.00;;;;;15.79;100.00;100075.28;6311220;20;2833670;-52
2023/07/09 03:52:19;;;;;;;;;18.50;18.50;;;;;15.99;100.00;100071.91;6282265;20;2844131;-48
2023/07/09 03:54:48;;;;;;;;;14.67;13.67;;;;;15.96;100.00;100076.72;6282698;20;3546106;-48
2023/07/09 03:57:16;;;;;;;;;21.00;20.00;;;;;15.97;100.00;100083.84;6280817;20;2833557;-52
2023/07/09 03:59:44;;;;;;;;;19.00;19.00;;;;;16.17;100.00;100079.59;6282704;20;2837799;-50
2023/07/09 04:02:12;;;;;;;;;18.50;18.50;;;;;16.39;100.00;100082.31;6279734;20;2833631;-50
2023/07/09 04:04:40;;;;;;;;;21.50;21.50;;;;;16.43;99.08;100085.66;6281848;20;2843181;-48
2023/07/09 04:07:09;;;;;;;;;23.67;19.33;;;;;16.33;99.22;100079.25;6283136;20;3567029;-51
2023/07/09 04:09:37;;;;;;;;;22.67;22.67;;;;;16.18;100.00;100081.31;6315889;20;3581518;-51
2023/07/09 04:12:07;;;;;;;;;25.33;22.33;;;;;16.32;99.93;100086.47;6277946;20;2843058;-50
2023/07/09 04:14:35;;;;;;;;;22.33;20.33;;;;;16.49;98.69;100078.88;6317068;20;3573197;-51
2023/07/09 04:17:04;;;;;;;;;21.50;19.50;;;;;16.33;100.00;100080.09;6278849;20;2826765;-50
2023/07/09 04:19:32;;;;;;;;;22.33;22.33;;;;;16.33;99.78;100082.81;6283598;20;3586898;-48
2023/07/09 04:22:00;;;;;;;;;24.00;21.00;;;;;16.32;99.65;100089.19;6282131;20;2846184;-55
2023/07/09 04:24:33;;;;;;;;;21.50;21.50;;;;;16.54;99.28;100079.38;6284073;20;2846132;-50
2023/07/09 04:27:02;;;;;;;;;16.00;16.00;;;;;16.46;99.36;100080.84;6284600;20;2821178;-51
2023/07/09 04:29:35;;;;;;;;;24.33;23.00;;;;;16.68;98.44;100089.97;6318083;20;3589831;-50
2023/07/09 04:32:08;;;;;;;;;21.00;21.00;;;;;16.87;99.55;100083.94;6283723;20;3583671;-52
2023/07/09 04:34:36;;;;;;;;;20.33;19.00;;;;;17.19;96.76;100084.00;6278016;20;3566403;-53
2023/07/09 04:37:07;;;;;;;;;20.67;20.33;;;;;17.60;95.41;100089.69;6279599;20;3574241;-52
2023/07/09 04:39:35;;;;;;;;;20.33;20.33;;;;;17.89;93.07;100087.25;6276595;20;3579403;-48
2023/07/09 04:42:06;;;;;;;;;23.00;21.50;;;;;18.05;93.64;100081.34;6279265;20;2845102;-49
2023/07/09 04:44:34;;;;;;;;;21.67;21.67;;;;;18.25;92.06;100082.34;6282352;20;3587791;-50
2023/07/09 04:47:05;;;;;;;;;19.33;18.33;;;;;18.63;88.22;100087.97;6283068;20;3566956;-51
2023/07/09 04:49:34;;;;;;;;;19.33;18.67;;;;;18.97;87.25;100084.97;6276579;20;3564948;-50
2023/07/09 04:52:02;;;;;;;;;21.00;18.33;;;;;19.08;86.62;100090.28;6316693;20;3574379;-50
2023/07/09 04:54:30;;;;;;;;;17.00;16.50;;;;;19.33;85.98;100092.66;6277946;20;2831604;-52
2023/07/09 04:56:58;;;;;;;;;14.50;14.00;;;;;19.47;86.55;100092.25;6278426;20;2492086;-54
2023/07/09 04:59:26;;;;;;;;;18.50;17.50;;;;;19.51;86.06;100091.84;6280796;20;2835809;-52
2023/07/09 05:01:55;;;;;;;;;20.00;19.00;;;;;19.73;87.24;100095.31;6277857;20;2833677;-51
2023/07/09 05:04:23;;;;;;;;;14.33;14.00;;;;;20.03;87.00;100093.41;6283502;20;3544153;-56
2023/07/09 05:06:51;;;;;;;;;22.33;21.00;;;;;20.13;87.82;100097.00;6313229;20;3580531;-52
2023/07/09 05:09:19;;;;;;;;;24.00;22.00;;;;;20.45;86.35;100098.50;6284179;20;3591957;-49
2023/07/09 05:11:47;;;;;;;;;17.00;17.00;;;;;20.80;85.14;100101.44;6279638;20;3567975;-52
2023/07/09 05:14:15;;;;;;;;;25.00;22.00;;;;;21.02;84.33;100107.50;6279203;20;3589847;-53
2023/07/09 05:16:45;;;;;;;;;19.67;18.33;;;;;21.77;78.82;100101.88;6279774;20;3569008;-52
2023/07/09 05:19:13;;;;;;;;;20.67;20.67;;;;;21.32;80.38;100108.19;6283492;20;3581571;-52
2023/07/09 05:21:41;;;;;;;;;19.00;18.00;;;;;21.32;79.24;100103.59;6280932;20;2822225;-55
2023/07/09 05:24:10;;;;;;;;;18.67;18.67;;;;;21.39;79.28;100096.53;6282937;20;3572209;-50
2023/07/09 05:26:38;;;;;;;;;19.33;19.33;;;;;21.63;78.74;100106.84;6283193;20;3545177;-52
2023/07/09 05:29:06;;;;;;;;;15.33;15.33;;;;;21.72;79.04;100104.19;6282172;20;2488224;-52
2023/07/09 05:31:36;;;;;;;;;18.00;17.33;;;;;21.89;77.03;100114.28;6313118;20;3562867;-52
2023/07/09 05:34:04;;;;;;;;;18.00;18.00;;;;;21.80;79.30;100104.28;6316867;20;3557656;-47
2023/07/09 05:36:32;;;;;;;;;18.67;18.67;;;;;22.00;76.21;100103.09;6279737;20;3559688;-50
2023/07/09 05:39:00;;;;;;;;;17.33;17.00;;;;;22.25;76.84;100106.94;6284102;20;3560803;-50
2023/07/09 05:41:29;;;;;;;;;19.67;18.33;;;;;22.48;75.07;100103.66;6283565;20;3579633;-52
2023/07/09 05:43:57;;;;;;;;;22.33;22.33;;;;;22.58;72.98;100108.00;6286706;20;3577335;-52
2023/07/09 05:46:25;;;;;;;;;17.67;17.67;;;;;22.64;73.29;100106.47;6284391;20;3553524;-48
2023/07/09 05:48:53;;;;;;;;;17.67;16.00;;;;;22.80;73.59;100111.19;6315529;20;3559703;-54
2023/07/09 05:51:24;;;;;;;;;19.33;17.33;;;;;22.88;74.88;100104.91;6279213;20;2842099;-50
2023/07/09 05:53:52;;;;;;;;;20.33;19.00;;;;;23.02;74.04;100103.47;6314034;20;3579497;-49
2023/07/09 05:56:20;;;;;;;;;19.00;18.00;;;;;23.29;70.73;100116.06;6281792;20;2830489;-50
2023/07/09 05:58:48;;;;;;;;;19.33;17.33;;;;;23.47;71.17;100118.69;6283605;20;3561707;-52
2023/07/09 06:01:16;;;;;;;;;21.67;18.67;;;;;23.52;71.68;100111.69;6281605;20;3578395;-52
2023/07/09 06:03:45;;;;;;;;;13.67;13.67;;;;;23.69;68.94;100115.31;6282503;20;2483621;-52
2023/07/09 06:06:14;;;;;;;;;16.00;16.00;;;;;23.81;69.28;100127.72;6312106;20;3568108;-54
2023/07/09 06:08:42;;;;;;;;;18.33;17.00;;;;;24.07;67.65;100126.72;6287274;20;3571128;-55
2023/07/09 06:11:10;;;;;;;;;17.67;17.00;;;;;24.31;66.39;100117.63;6279640;20;3560793;-52
2023/07/09 06:13:38;;;;;;;;;17.00;17.00;;;;;24.30;65.98;100127.75;6274596;20;3562850;-55
2023/07/09 06:16:06;;;;;;;;;16.00;16.00;;;;;24.42;66.51;100124.63;6281186;20;3553562;-52
2023/07/09 06:18:35;;;;;;;;;19.00;16.00;;;;;24.66;65.35;100130.09;6281634;20;3554797;-55
2023/07/09 06:21:03;;;;;;;;;16.00;16.00;;;;;24.91;65.87;100132.81;6314712;20;3551404;-50
2023/07/09 06:23:31;;;;;;;;;18.00;15.67;;;;;25.19;63.30;100128.59;6276576;20;3553603;-55
2023/07/09 06:26:00;;;;;;;;;19.33;19.33;;;;;25.62;62.58;100140.06;6307521;20;3568103;-50
2023/07/09 06:28:29;;;;;;;;;18.50;16.00;;;;;25.81;61.39;100126.88;6269680;20;2826419;-53
2023/07/09 06:30:57;;;;;;;;;18.00;16.00;;;;;26.08;61.85;100127.41;6273785;20;2819037;-51
2023/07/09 06:33:27;;;;;;;;;17.00;17.00;;;;;26.13;61.69;100128.56;6276886;20;3569010;-52
2023/07/09 06:36:01;;;;;;;;;18.00;18.00;;;;;26.29;61.16;100130.31;6271477;20;2827361;-55
2023/07/09 06:38:30;;;;;;;;;20.67;15.33;;;;;26.76;58.42;100129.19;6273549;20;3580591;-53
2023/07/09 06:40:59;;;;;;;;;17.00;16.33;;;;;27.03;58.26;100135.09;6272830;20;3571123;-49
2023/07/09 06:43:27;;;;;;;;;15.00;15.00;;;;;27.32;57.55;100131.47;6268865;20;2811736;-52
2023/07/09 06:45:59;;;;;;;;;15.33;15.33;;;;;27.51;56.73;100132.78;6281312;20;3551302;-53
2023/07/09 06:48:29;;;;;;;;;15.50;14.00;;;;;27.78;54.57;100136.72;6300420;20;2816950;-53
2023/07/09 06:50:59;;;;;;;;;13.33;13.33;;;;;28.01;53.31;100139.28;6271920;20;3536718;-51
2023/07/09 06:53:28;;;;;;;;;14.33;14.33;;;;;28.44;52.29;100136.56;6308573;20;3544055;-52
2023/07/09 06:55:58;;;;;;;;;13.33;12.33;;;;;28.42;51.92;100138.63;6312222;20;3530555;-50
2023/07/09 06:58:33;;;;;;;;;13.33;12.67;;;;;28.93;49.44;100141.16;6304356;20;2487768;-55
2023/07/09 07:01:04;;;;;;;;;12.00;12.00;;;;;29.36;44.60;100140.13;6303556;20;3521259;-51
2023/07/09 07:03:33;;;;;;;;;10.00;9.00;;;;;29.41;44.19;100144.00;6277492;20;2769186;-52
2023/07/09 07:06:01;;;;;;;;;13.00;11.00;;;;;29.34;44.97;100148.66;6305050;20;2491950;-51
2023/07/09 07:08:30;;;;;;;;;13.33;11.00;;;;;29.84;42.68;100142.91;6302626;20;2780593;-52
2023/07/09 07:11:02;;;;;;;;;10.00;10.00;;;;;30.26;40.88;100140.88;6305777;20;2783835;-57
2023/07/09 07:13:39;;;;;;;;;12.33;10.67;;;;;30.15;40.82;100139.56;6303292;20;3519370;-53
2023/07/09 07:16:10;;;;;;;;;9.00;8.00;;;;;30.49;39.99;100141.31;6270192;20;3474346;-53
2023/07/09 07:18:39;;;;;;;;;10.00;10.00;;;;;30.63;39.99;100137.44;6306941;20;2783744;-53
2023/07/09 07:21:07;;;;;;;;;10.33;9.67;;;;;30.83;39.71;100147.69;6300621;20;3491953;-52
2023/07/09 07:23:35;;;;;;;;;9.00;9.00;;;;;30.39;38.91;100152.81;6302536;20;3470071;-51
2023/07/09 07:26:03;;;;;;;;;10.00;8.67;;;;;30.61;37.94;100147.03;6300318;20;2770209;-56
2023/07/09 07:28:35;;;;;;;;;10.67;9.33;;;;;30.86;37.42;100160.25;6297769;20;2774243;-54
2023/07/09 07:31:09;;;;;;;;;11.33;10.00;;;;;30.88;37.26;100155.34;6308731;20;2783664;-54
2023/07/09 07:33:41;;;;;;;;;8.00;8.00;;;;;30.71;36.41;100157.72;6301379;20;3462845;-56
2023/07/09 07:36:10;;;;;;;;;9.67;9.33;;;;;30.71;36.42;100154.94;6311632;20;2753405;-53
2023/07/09 07:38:40;;;;;;;;;10.67;9.67;;;;;30.34;36.46;100144.28;6305318;20;2779577;-57
2023/07/09 07:41:09;;;;;;;;;10.00;10.00;;;;;31.14;36.47;100154.44;6301155;20;3512782;-56
2023/07/09 07:43:37;;;;;;;;;10.33;10.00;;;;;30.62;35.95;100148.72;6268717;20;3512784;-52
2023/07/09 07:46:07;;;;;;;;;9.00;8.67;;;;;30.97;37.28;100143.81;6269974;20;2759847;-52
2023/07/09 07:48:35;;;;;;;;;8.00;8.00;;;;;30.63;35.67;100156.84;6301458;20;2750407;-57
2023/07/09 07:51:04;;;;;;;;;8.67;8.67;;;;;31.00;37.60;100153.63;6308525;20;2747391;-54
2023/07/09 07:53:32;;;;;;;;;10.33;8.67;;;;;31.12;34.84;100151.88;6311222;20;2763833;-54
2023/07/09 07:56:02;;;;;;;;;12.67;11.33;;;;;31.22;35.29;100159.75;6307804;20;2483665;-54
2023/07/09 07:58:32;;;;;;;;;11.33;10.33;;;;;31.22;34.55;100146.72;6311780;20;2792016;-54
2023/07/09 08:01:00;;;;;;;;;10.67;10.67;;;;;31.64;34.85;100149.16;6307488;20;3510675;-55
2023/07/09 08:03:29;;;;;;;;;10.33;9.67;;;;;31.16;34.99;100150.38;6306711;20;3497133;-55
2023/07/09 08:05:57;;;;;;;;;10.33;9.67;;;;;31.23;35.91;100154.00;6313589;20;2775450;-56
2023/07/09 08:08:29;;;;;;;;;11.67;9.00;;;;;31.37;35.43;100153.97;6301626;20;3494043;-57
2023/07/09 08:11:04;;;;;;;;;9.33;9.00;;;;;31.56;35.42;100143.88;6314740;20;2756618;-54
2023/07/09 08:13:38;;;;;;;;;9.00;9.00;;;;;31.37;35.53;100154.84;6305254;20;3472177;-56
2023/07/09 08:16:07;;;;;;;;;11.00;9.00;;;;;31.63;35.09;100141.91;6305187;20;3487773;-58
2023/07/09 08:18:36;;;;;;;;;8.33;8.33;;;;;31.54;35.59;100155.19;6314001;20;2752379;-56
2023/07/09 08:21:04;;;;;;;;;11.00;11.00;;;;;31.63;35.35;100144.69;6309081;20;3503490;-52
2023/07/09 08:23:32;;;;;;;;;10.00;10.00;;;;;32.20;34.63;100142.00;6312309;20;2790148;-58
2023/07/09 08:26:02;;;;;;;;;11.00;9.67;;;;;31.51;34.94;100138.97;6306603;20;3500455;-58
2023/07/09 08:28:32;;;;;;;;;9.00;9.00;;;;;31.53;35.48;100139.59;6272152;20;3453474;-57
2023/07/09 08:31:01;;;;;;;;;12.00;10.33;;;;;32.29;34.35;100135.13;6305513;20;3510692;-52
2023/07/09 08:33:30;;;;;;;;;9.33;9.33;;;;;31.66;35.10;100145.09;6282034;20;2764917;-58
2023/07/09 08:35:58;;;;;;;;;10.00;9.67;;;;;32.17;35.24;100145.25;6305912;20;3498184;-52
2023/07/09 08:38:26;;;;;;;;;9.00;9.00;;;;;32.04;32.96;100146.19;6301666;20;3485813;-55
2023/07/09 08:41:07;;;;;;;;;10.67;9.00;;;;;31.66;33.21;100144.25;6312720;20;2768028;-57
2023/07/09 08:44:23;;;;;;;;;12.67;10.00;;;;;31.95;34.05;100151.16;6308227;20;2484235;-58
2023/07/09 08:47:07;;;;;;;;;9.33;8.67;;;;;31.47;32.01;100148.81;6306493;20;2743012;-51
2023/07/09 08:49:49;;;;;;;;;8.00;8.00;;;;;31.98;31.84;100152.63;6313160;20;2750328;-53
2023/07/09 08:52:45;;;;;;;;;7.00;6.00;;;;;31.32;31.42;100150.97;6304452;20;2750287;-53
2023/07/09 08:55:28;;;;;;;;;7.33;7.33;;;;;31.67;31.23;100152.34;6308378;20;2744104;-55
2023/07/09 08:58:11;;;;;;;;;8.67;8.00;;;;;31.64;31.26;100140.84;6308536;20;3462758;-51
2023/07/09 09:00:44;;;;;;;;;7.33;7.33;;;;;31.59;30.39;100144.25;6313331;20;2747176;-58
2023/07/09 09:03:27;;;;;;;;;8.33;8.33;;;;;32.11;30.35;100145.06;6313001;20;2756639;-54
2023/07/09 09:05:56;;;;;;;;;7.67;7.67;;;;;31.75;29.64;100139.28;6320761;20;2756533;-54
2023/07/09 09:09:17;;;;;;;;;7.33;7.33;;;;;32.23;30.02;100147.09;6302021;20;2748295;-56
2023/07/09 09:12:00;;;;;;;;;8.00;8.00;;;;;32.22;30.35;100150.97;6313917;20;2756612;-55
2023/07/09 09:14:43;;;;;;;;;9.67;8.33;;;;;31.76;30.96;100147.41;6305507;20;3479416;-54
2023/07/09 09:17:18;;;;;;;;;7.67;7.67;;;;;31.83;30.63;100141.78;6310231;20;2754560;-58
2023/07/09 09:20:03;;;;;;;;;8.67;8.67;;;;;31.98;30.56;100144.31;6303670;20;3481593;-58
2023/07/09 09:23:04;;;;;;;;;8.00;8.00;;;;;32.03;30.19;100142.56;6309776;20;2627362;-57
2023/07/09 09:25:36;;;;;;;;;9.00;9.00;;;;;32.26;30.38;100146.69;6312184;20;2754474;-56
2023/07/09 09:28:05;;;;;;;;;9.67;7.67;;;;;32.43;29.58;100147.81;6314805;20;2758754;-56
2023/07/09 09:30:33;;;;;;;;;6.67;6.00;;;;;32.52;29.61;100152.06;6311721;20;3466964;-55
2023/07/09 09:33:07;;;;;;;;;8.67;7.33;;;;;32.18;28.97;100150.59;6313001;20;2745074;-58
2023/07/09 09:35:43;;;;;;;;;9.00;8.33;;;;;32.46;28.77;100150.13;6319277;20;2757586;-58
2023/07/09 09:38:22;;;;;;;;;7.67;7.67;;;;;32.40;29.42;100148.28;6310452;20;2746580;-52
2023/07/09 09:40:51;;;;;;;;;8.67;8.67;;;;;33.13;29.72;100146.78;6313832;20;2749234;-55
2023/07/09 09:43:23;;;;;;;;;9.33;9.00;;;;;32.78;29.39;100144.53;6317479;20;2761739;-53
2023/07/09 09:45:52;;;;;;;;;9.00;9.00;;;;;31.83;29.73;100136.25;6319693;20;2750278;-55
2023/07/09 09:48:29;;;;;;;;;7.00;7.00;;;;;31.87;30.60;100132.78;6311950;20;2750326;-56
2023/07/09 09:51:03;;;;;;;;;6.33;6.33;;;;;32.67;28.93;100142.50;6315453;20;2737873;-55
2023/07/09 09:53:40;;;;;;;;;9.33;9.33;;;;;32.32;29.29;100140.22;6321137;20;2766010;-58
2023/07/09 09:56:20;;;;;;;;;10.00;7.00;;;;;32.92;28.40;100136.91;6307357;20;3488822;-52
2023/07/09 09:58:54;;;;;;;;;6.33;6.33;;;;;32.64;28.81;100134.63;6313876;20;2741941;-54
2023/07/09 10:01:29;;;;;;;;;8.00;7.00;;;;;32.37;29.36;100140.38;6306475;20;2746199;-56
2023/07/09 10:04:00;;;;;;;;;8.00;8.00;;;;;32.93;28.39;100141.41;6305382;20;2754563;-53
2023/07/09 10:06:47;;;;;;;;;7.67;7.67;;;;;32.88;29.34;100139.28;6301282;20;3466012;-57
2023/07/09 10:09:26;;;;;;;;;10.00;7.67;;;;;33.32;27.20;100133.72;6301210;20;3498734;-55
2023/07/09 10:12:36;;;;;;;;;7.67;7.67;;;;;32.76;27.77;100136.44;6298355;20;2743056;-57
2023/07/09 10:15:19;;;;;;;;;8.33;8.33;;;;;33.01;27.08;100130.84;6304799;20;2752509;-56
2023/07/09 10:18:03;;;;;;;;;7.67;7.67;;;;;33.28;28.36;100144.44;6308993;20;2753508;-57
2023/07/09 10:20:51;;;;;;;;;6.33;6.33;;;;;33.22;27.40;100134.25;6306952;20;2739877;-53
2023/07/09 10:23:59;;;;;;;;;10.67;8.67;;;;;33.10;26.08;100127.75;6300472;20;2771267;-57
2023/07/09 10:26:41;;;;;;;;;10.67;8.67;;;;;33.26;26.50;100132.72;6299543;20;3488791;-54
2023/07/09 10:30:06;;;;;;;;;10.33;8.00;;;;;32.94;26.00;100123.59;6301651;20;3487786;-56
2023/07/09 10:33:13;;;;;;;;;7.67;7.67;;;;;32.96;25.84;100125.06;6297863;20;2743228;-57
2023/07/09 10:36:17;;;;;;;;;7.67;6.67;;;;;33.24;26.63;100123.75;6301712;20;3453467;-54
2023/07/09 10:39:26;;;;;;;;;7.33;7.33;;;;;33.40;26.77;100120.31;6312389;20;2748294;-55
2023/07/09 10:41:59;;;;;;;;;9.33;8.00;;;;;33.76;26.83;100118.59;6307997;20;2757573;-54
2023/07/09 10:44:36;;;;;;;;;9.67;8.33;;;;;33.40;26.89;100125.88;6301046;20;3483684;-58
2023/07/09 10:47:18;;;;;;;;;8.67;8.67;;;;;32.98;27.62;100128.50;6297328;20;2751302;-56
2023/07/09 10:49:48;;;;;;;;;10.00;9.00;;;;;33.34;27.28;100120.41;6300088;20;3487902;-55
2023/07/09 10:52:30;;;;;;;;;8.33;8.00;;;;;33.48;25.25;100121.09;6302571;20;2754628;-53
2023/07/09 10:55:13;;;;;;;;;10.33;9.00;;;;;33.20;26.49;100120.59;6301054;20;3491964;-55
2023/07/09 10:58:03;;;;;;;;;9.00;9.00;;;;;33.41;26.85;100110.91;6312767;20;2748221;-55
2023/07/09 11:00:38;;;;;;;;;9.67;9.33;;;;;33.17;26.92;100103.47;6300237;20;3479449;-52
2023/07/09 11:03:50;;;;;;;;;8.67;8.67;;;;;32.64;27.25;100115.16;6304042;20;2760839;-55
2023/07/09 11:06:25;;;;;;;;;10.00;8.33;;;;;33.11;27.40;100112.78;6298550;20;2756613;-55
2023/07/09 11:08:57;;;;;;;;;7.00;7.00;;;;;33.17;26.56;100109.03;6305070;20;2743106;-58
2023/07/09 11:11:34;;;;;;;;;8.00;7.67;;;;;33.23;26.86;100108.13;6306668;20;2736860;-56
2023/07/09 11:14:17;;;;;;;;;10.00;9.00;;;;;33.15;27.47;100105.63;6302006;20;3481716;-56
2023/07/09 11:16:45;;;;;;;;;9.00;9.00;;;;;32.84;27.46;100101.91;6297957;20;2748376;-58
2023/07/09 11:19:18;;;;;;;;;9.33;9.33;;;;;33.08;28.07;100099.31;6298262;20;3484691;-55